Time;durP1;ratioP1;P1;durP2;ratioP2;P2;SDS_P1;SDS_P2;PMS_P1;PMS_P2;Temp;Humidity;BMP_temperature;BMP_pressure;BME280_temperature;BME280_humidity;BME280_pressure;Samples;Min_cycle;Max_cycle;Signal;HPM_P1;HPM_P2
2022/10/20 00:01:36;;;;;;;10.23;7.47;;;;;;;10.58;100.00;96131.50;5028744;28;24435;-74
2022/10/20 00:04:03;;;;;;;8.37;7.57;;;;;;;10.61;100.00;96135.69;5024484;28;24786;-72
2022/10/20 00:06:31;;;;;;;8.63;7.60;;;;;;;10.36;100.00;96141.41;5027820;28;24841;-74
2022/10/20 00:09:01;;;;;;;7.75;6.85;;;;;;;10.22;100.00;96138.72;5017561;28;25005;-74
2022/10/20 00:11:28;;;;;;;10.80;7.18;;;;;;;10.12;100.00;96135.78;5028492;28;24447;-74
2022/10/20 00:13:57;;;;;;;9.73;7.07;;;;;;;10.20;100.00;96136.22;5025276;28;24452;-74
2022/10/20 00:16:24;;;;;;;11.10;6.82;;;;;;;10.23;100.00;96133.44;5026967;28;24450;-74
2022/10/20 00:18:51;;;;;;;12.23;7.07;;;;;;;10.29;100.00;96129.72;5025660;28;24443;-73
2022/10/20 00:21:19;;;;;;;7.93;7.13;;;;;;;10.31;100.00;96122.72;5027770;28;25339;-74
2022/10/20 00:23:46;;;;;;;9.43;7.22;;;;;;;10.22;100.00;96126.59;5025582;28;24438;-73
2022/10/20 00:26:16;;;;;;;7.25;6.55;;;;;;;10.13;100.00;96133.13;5027807;28;24466;-74
2022/10/20 00:28:43;;;;;;;8.48;6.78;;;;;;;10.11;100.00;96126.38;5025544;28;24797;-74
2022/10/20 00:31:11;;;;;;;10.80;7.40;;;;;;;10.07;100.00;96125.69;5023177;28;24439;-73
2022/10/20 00:33:37;;;;;;;9.38;7.72;;;;;;;10.04;100.00;96118.09;5025079;28;24448;-73
2022/10/20 00:36:06;;;;;;;11.80;7.72;;;;;;;10.14;100.00;96121.03;5026942;28;24443;-73
2022/10/20 00:38:34;;;;;;;8.30;7.40;;;;;;;10.17;100.00;96110.50;5025119;28;24439;-74
2022/10/20 00:41:01;;;;;;;12.33;7.03;;;;;;;10.09;100.00;96113.53;5022548;28;24436;-74
2022/10/20 00:43:44;;;;;;;9.38;6.97;;;;;;;10.13;100.00;96114.19;5025450;28;24803;-74
2022/10/20 00:46:12;;;;;;;8.52;6.82;;;;;;;10.15;100.00;96105.41;5027428;28;24515;-74
2022/10/20 00:48:40;;;;;;;8.38;7.57;;;;;;;10.14;100.00;96092.56;5025842;28;24798;-73
2022/10/20 00:51:07;;;;;;;9.88;7.25;;;;;;;10.07;100.00;96094.66;5023001;28;24436;-74
2022/10/20 00:53:34;;;;;;;7.90;7.10;;;;;;;10.03;100.00;96089.72;5022972;28;24448;-74
2022/10/20 00:56:01;;;;;;;8.30;7.05;;;;;;;9.87;100.00;96090.59;5024832;28;25150;-73
2022/10/20 00:58:28;;;;;;;13.73;7.40;;;;;;;9.84;100.00;96085.56;5031076;28;24432;-74
2022/10/20 01:00:59;;;;;;;11.07;9.10;;;;;;;9.86;100.00;96083.75;5031863;28;24444;-74
2022/10/20 01:03:30;;;;;;;10.25;9.25;;;;;;;9.87;100.00;96082.81;5024163;28;24431;-74
2022/10/20 01:05:56;;;;;;;9.88;8.60;;;;;;;9.96;100.00;96085.81;5031105;28;24440;-73
2022/10/20 01:08:23;;;;;;;14.07;8.05;;;;;;;9.93;100.00;96082.47;5030122;28;24455;-73
2022/10/20 01:11:01;;;;;;;8.68;7.85;;;;;;;9.92;100.00;96082.56;5027352;28;24440;-73
2022/10/20 01:13:34;;;;;;;9.10;7.68;;;;;;;9.94;100.00;96084.16;5023537;28;25008;-74
2022/10/20 01:16:09;;;;;;;9.43;7.25;;;;;;;9.91;100.00;96081.72;5026033;28;25004;-73
2022/10/20 01:18:46;;;;;;;10.48;7.35;;;;;;;9.88;100.00;96075.88;5025332;28;25089;-73
2022/10/20 01:21:31;;;;;;;7.63;7.03;;;;;;;9.90;100.00;96074.91;5031629;28;24439;-73
2022/10/20 01:24:12;;;;;;;10.50;7.68;;;;;;;9.91;100.00;96071.38;5027013;28;20764;-74
2022/10/20 01:27:05;;;;;;;11.13;8.15;;;;;;;9.88;100.00;96063.78;5026472;28;24447;-73
2022/10/20 01:29:40;;;;;;;9.47;7.20;;;;;;;9.96;100.00;96062.53;5031055;28;24515;-74
2022/10/20 01:32:13;;;;;;;11.43;6.93;;;;;;;9.88;100.00;96066.38;5031356;28;24451;-74
2022/10/20 01:34:47;;;;;;;14.38;6.80;;;;;;;9.86;100.00;96050.13;5024931;28;24462;-74
2022/10/20 01:37:19;;;;;;;12.37;6.27;;;;;;;9.80;100.00;96057.38;5026400;28;24817;-74
2022/10/20 01:39:50;;;;;;;6.80;6.20;;;;;;;9.63;100.00;96048.78;5031261;28;24459;-73
2022/10/20 01:42:20;;;;;;;9.13;6.75;;;;;;;9.50;100.00;96047.78;5029949;28;24647;-74
2022/10/20 01:44:51;;;;;;;6.75;5.88;;;;;;;9.37;100.00;96057.94;5024860;28;24801;-74
2022/10/20 01:47:19;;;;;;;6.97;6.38;;;;;;;9.40;100.00;96042.25;5026964;28;24455;-73
2022/10/20 01:49:48;;;;;;;6.72;6.13;;;;;;;9.43;100.00;96039.50;5032423;28;24434;-73
2022/10/20 01:52:16;;;;;;;7.37;6.57;;;;;;;9.48;100.00;96049.59;5027334;28;24436;-73
2022/10/20 01:54:42;;;;;;;19.30;5.80;;;;;;;9.54;100.00;96032.94;5030740;28;24463;-73
2022/10/20 01:57:24;;;;;;;7.82;5.93;;;;;;;9.61;100.00;96034.28;5019423;28;24450;-74
2022/10/20 02:00:05;;;;;;;19.15;6.40;;;;;;;9.64;100.00;96018.56;5031040;28;24466;-74
2022/10/20 02:03:05;;;;;;;6.43;5.82;;;;;;;9.63;100.00;96020.31;5028765;28;25020;-73
2022/10/20 02:05:50;;;;;;;5.60;5.10;;;;;;;9.71;100.00;96027.66;5023472;28;24447;-73
2022/10/20 02:08:22;;;;;;;22.23;5.45;;;;;;;9.72;100.00;96013.81;5019358;28;24523;-73
2022/10/20 02:10:52;;;;;;;29.70;5.43;;;;;;;9.66;100.00;96016.75;5026151;28;25019;-74
2022/10/20 02:13:21;;;;;;;23.77;4.65;;;;;;;9.56;100.00;96018.16;5028285;28;24439;-74
2022/10/20 02:15:52;;;;;;;65.18;5.80;;;;;;;9.40;100.00;96013.00;5020194;28;24826;-74
2022/10/20 02:18:22;;;;;;;52.63;5.93;;;;;;;9.44;100.00;96009.31;5019821;28;24431;-74
2022/10/20 02:20:52;;;;;;;27.85;5.40;;;;;;;9.46;100.00;96010.09;5026273;28;24472;-73
2022/10/20 02:23:18;;;;;;;35.72;5.70;;;;;;;9.45;100.00;96003.22;5027960;28;25167;-74
2022/10/20 02:25:48;;;;;;;52.40;5.85;;;;;;;9.44;100.00;96009.31;5018398;28;24436;-74
2022/10/20 02:28:16;;;;;;;116.15;7.47;;;;;;;9.24;100.00;96007.00;5027058;28;25020;-72
2022/10/20 02:30:45;;;;;;;81.22;7.50;;;;;;;9.18;100.00;96010.72;5023049;28;25110;-74
2022/10/20 02:33:14;;;;;;;126.75;8.10;;;;;;;9.19;100.00;95997.72;5020685;28;24443;-74
2022/10/20 02:35:48;;;;;;;61.57;6.50;;;;;;;9.17;100.00;96002.16;5024320;28;24617;-74
2022/10/20 02:38:14;;;;;;;59.25;6.38;;;;;;;9.13;100.00;95997.22;5026780;28;25075;-74
2022/10/20 02:40:41;;;;;;;44.03;6.22;;;;;;;9.13;100.00;95997.22;5025496;28;24435;-72
2022/10/20 02:43:07;;;;;;;34.33;5.45;;;;;;;9.14;100.00;95991.97;5029294;28;24435;-73
2022/10/20 02:45:34;;;;;;;6.27;5.03;;;;;;;9.32;100.00;95994.50;5017523;28;24432;-74
2022/10/20 02:48:00;;;;;;;9.23;5.03;;;;;;;9.35;100.00;95991.75;5030012;28;24432;-73
2022/10/20 02:50:28;;;;;;;22.17;5.88;;;;;;;9.20;100.00;95983.91;5028361;28;24799;-73
2022/10/20 02:52:54;;;;;;;5.60;5.10;;;;;;;9.24;100.00;95984.56;5022422;28;24447;-74
2022/10/20 02:55:21;;;;;;;7.60;5.47;;;;;;;9.30;100.00;95988.56;5026825;28;24544;-73
2022/10/20 02:57:48;;;;;;;5.40;4.90;;;;;;;9.34;100.00;95984.88;5022557;28;25102;-74
2022/10/20 03:00:15;;;;;;;6.38;5.30;;;;;;;9.40;100.00;95984.56;5025123;28;24989;-74
2022/10/20 03:02:41;;;;;;;9.32;5.82;;;;;;;9.28;100.00;95980.06;5029819;28;24442;-73
2022/10/20 03:05:08;;;;;;;8.80;5.82;;;;;;;9.12;100.00;95983.47;5023967;28;25008;-73
2022/10/20 03:07:36;;;;;;;13.18;5.70;;;;;;;9.16;100.00;95992.75;5028803;28;24497;-74
2022/10/20 03:10:03;;;;;;;7.70;5.80;;;;;;;9.28;100.00;95993.81;5029011;28;24446;-73
2022/10/20 03:12:30;;;;;;;6.47;5.45;;;;;;;9.36;100.00;95983.91;5029664;28;24434;-72
2022/10/20 03:14:56;;;;;;;8.90;5.47;;;;;;;9.40;100.00;95984.56;5029008;28;24467;-74
2022/10/20 03:17:23;;;;;;;7.22;5.50;;;;;;;9.44;100.00;95986.88;5027970;28;24446;-74
2022/10/20 03:19:49;;;;;;;5.80;5.22;;;;;;;9.45;100.00;95995.47;5028733;28;24879;-74
2022/10/20 03:22:16;;;;;;;8.10;5.57;;;;;;;9.39;100.00;95983.72;5028423;28;24439;-73
2022/10/20 03:24:44;;;;;;;7.40;5.57;;;;;;;9.51;100.00;95986.56;5025750;28;24448;-73
2022/10/20 03:27:10;;;;;;;8.48;5.35;;;;;;;9.54;100.00;95976.88;5028815;28;24439;-72
2022/10/20 03:29:37;;;;;;;8.65;5.82;;;;;;;9.59;100.00;95980.03;5028280;28;25008;-74
2022/10/20 03:32:03;;;;;;;5.93;5.38;;;;;;;9.58;100.00;95991.31;5028157;28;24443;-74
2022/10/20 03:34:30;;;;;;;10.85;6.45;;;;;;;9.51;100.00;95984.81;5025404;28;24443;-74
2022/10/20 03:36:56;;;;;;;6.88;6.15;;;;;;;9.55;100.00;95980.31;5028753;28;24451;-74
2022/10/20 03:39:23;;;;;;;7.43;6.47;;;;;;;9.57;100.00;95978.47;5027825;28;24444;-73
2022/10/20 03:41:50;;;;;;;7.10;6.00;;;;;;;9.59;100.00;95979.22;5029087;28;24432;-73
2022/10/20 03:44:17;;;;;;;7.28;6.53;;;;;;;9.61;100.00;95974.81;5026506;28;24798;-73
2022/10/20 03:46:43;;;;;;;8.07;7.30;;;;;;;9.59;100.00;95972.28;5026822;28;24447;-73
2022/10/20 03:49:11;;;;;;;9.15;7.53;;;;;;;9.56;100.00;95975.03;5025578;28;24435;-74
2022/10/20 03:51:38;;;;;;;8.50;7.70;;;;;;;9.65;100.00;95968.53;5018469;28;24439;-74
2022/10/20 03:54:04;;;;;;;8.73;7.32;;;;;;;9.65;100.00;95956.44;5027246;28;24432;-74
2022/10/20 03:56:31;;;;;;;9.60;7.57;;;;;;;9.74;100.00;95957.66;5025583;28;24443;-74
2022/10/20 03:58:59;;;;;;;8.57;7.20;;;;;;;9.85;100.00;95946.72;5027196;28;24438;-73
2022/10/20 04:01:29;;;;;;;8.95;7.93;;;;;;;9.90;100.00;95944.69;5026047;28;24972;-73
2022/10/20 04:03:56;;;;;;;9.68;8.30;;;;;;;9.80;100.00;95951.31;5027583;28;24813;-73
2022/10/20 04:06:22;;;;;;;9.60;8.60;;;;;;;9.84;100.00;95952.81;5025004;28;24443;-73
2022/10/20 04:08:49;;;;;;;13.07;11.48;;;;;;;9.82;100.00;95945.13;5027860;28;24798;-73
2022/10/20 04:11:15;;;;;;;12.50;9.98;;;;;;;9.87;100.00;95950.88;5028594;28;24436;-72
2022/10/20 04:13:42;;;;;;;10.20;8.77;;;;;;;9.91;100.00;95944.59;5027552;28;25016;-73
2022/10/20 04:16:10;;;;;;;9.55;8.20;;;;;;;9.96;100.00;95939.16;5015497;28;24468;-74
2022/10/20 04:18:37;;;;;;;11.18;8.15;;;;;;;9.84;100.00;95938.13;5020472;28;24439;-74
2022/10/20 04:21:04;;;;;;;11.43;9.70;;;;;;;9.78;100.00;95938.47;5022073;28;24534;-74
2022/10/20 04:23:30;;;;;;;15.15;12.20;;;;;;;9.78;100.00;95943.63;5021389;28;24435;-74
2022/10/20 04:25:57;;;;;;;12.95;10.38;;;;;;;9.69;100.00;95939.81;5028323;28;24451;-73
2022/10/20 04:28:23;;;;;;;12.07;10.87;;;;;;;9.74;100.00;95934.38;5026088;28;24474;-72
2022/10/20 04:30:50;;;;;;;18.30;13.50;;;;;;;9.77;100.00;95944.56;5028751;28;25024;-72
2022/10/20 04:33:18;;;;;;;19.67;16.25;;;;;;;9.73;100.00;95930.13;5033080;28;24436;-72
2022/10/20 04:35:44;;;;;;;24.35;15.80;;;;;;;9.74;100.00;95936.13;5032580;28;24466;-73
2022/10/20 04:38:11;;;;;;;15.57;12.52;;;;;;;9.70;100.00;95930.31;5027911;28;25293;-72
2022/10/20 04:40:37;;;;;;;21.00;13.67;;;;;;;9.69;100.00;95921.72;5020576;28;24448;-71
2022/10/20 04:43:04;;;;;;;15.10;12.30;;;;;;;9.73;100.00;95929.31;5021136;28;25700;-71
2022/10/20 04:45:30;;;;;;;13.30;10.55;;;;;;;9.74;100.00;95921.44;5024493;28;24829;-72
2022/10/20 04:47:57;;;;;;;11.30;9.25;;;;;;;9.77;100.00;95918.69;5024729;28;24451;-71
2022/10/20 04:50:25;;;;;;;11.13;9.93;;;;;;;9.81;100.00;95921.94;5032408;28;24810;-71
2022/10/20 04:52:51;;;;;;;20.75;14.57;;;;;;;9.83;100.00;95913.19;5031135;28;24448;-71
2022/10/20 04:55:19;;;;;;;23.23;17.48;;;;;;;9.84;100.00;95919.19;5025728;28;24459;-70
2022/10/20 04:57:45;;;;;;;24.83;17.48;;;;;;;9.80;100.00;95913.34;5027010;28;24443;-70
2022/10/20 05:00:13;;;;;;;36.80;26.25;;;;;;;9.79;100.00;95918.59;5032236;28;24440;-70
2022/10/20 05:02:39;;;;;;;32.40;22.98;;;;;;;9.84;100.00;95914.84;5031499;28;24447;-70
2022/10/20 05:05:06;;;;;;;29.83;22.77;;;;;;;9.87;100.00;95900.91;5028590;28;24438;-71
2022/10/20 05:07:34;;;;;;;24.07;19.03;;;;;;;9.83;100.00;95905.41;5027320;28;24437;-70
2022/10/20 05:10:01;;;;;;;18.90;13.27;;;;;;;9.86;100.00;95905.25;5028095;28;24443;-72
2022/10/20 05:12:27;;;;;;;12.68;10.68;;;;;;;9.92;100.00;95894.53;5032078;28;24467;-71
2022/10/20 05:14:54;;;;;;;12.18;9.27;;;;;;;9.94;100.00;95891.88;5026370;28;24460;-70
2022/10/20 05:17:20;;;;;;;9.90;8.00;;;;;;;9.99;100.00;95896.75;5023578;28;24869;-70
2022/10/20 05:19:47;;;;;;;11.63;8.52;;;;;;;9.99;100.00;95883.81;5031982;28;24447;-70
2022/10/20 05:22:13;;;;;;;10.03;8.20;;;;;;;10.02;100.00;95881.06;5023815;28;24533;-72
2022/10/20 05:24:41;;;;;;;11.57;9.40;;;;;;;10.04;100.00;95880.03;5025360;28;24444;-71
2022/10/20 05:27:08;;;;;;;17.80;10.52;;;;;;;10.01;100.00;95877.66;5030254;28;24447;-71
2022/10/20 05:29:34;;;;;;;19.30;11.23;;;;;;;10.06;100.00;95870.44;5025378;28;24467;-70
2022/10/20 05:32:01;;;;;;;15.63;10.93;;;;;;;10.15;100.00;95867.28;5015936;28;24452;-71
2022/10/20 05:34:27;;;;;;;13.50;11.35;;;;;;;10.18;100.00;95863.69;5023984;28;24454;-72
2022/10/20 05:36:54;;;;;;;16.87;11.10;;;;;;;10.19;100.00;95860.19;5028787;28;24467;-73
2022/10/20 05:39:22;;;;;;;14.95;10.55;;;;;;;10.16;100.00;95858.63;5029023;28;24435;-74
2022/10/20 05:41:49;;;;;;;13.52;10.82;;;;;;;10.17;100.00;95844.75;5029779;28;24428;-71
2022/10/20 05:44:16;;;;;;;12.88;9.30;;;;;;;10.24;100.00;95853.00;5027207;28;24439;-73
2022/10/20 05:46:42;;;;;;;11.95;10.50;;;;;;;10.21;100.00;95852.34;5024381;28;24443;-71
2022/10/20 05:49:12;;;;;;;14.47;10.67;;;;;;;10.33;100.00;95852.44;5030136;28;24525;-68
2022/10/20 05:51:39;;;;;;;13.35;10.77;;;;;;;10.37;100.00;95863.44;5023240;28;24432;-70
2022/10/20 05:54:06;;;;;;;11.68;9.88;;;;;;;10.32;100.00;95855.16;5027258;28;24443;-71
2022/10/20 05:56:33;;;;;;;11.40;10.18;;;;;;;10.32;100.00;95855.16;5019063;28;24452;-70
2022/10/20 05:59:01;;;;;;;12.53;10.10;;;;;;;10.15;100.00;95866.47;5028449;28;24495;-70
2022/10/20 06:01:38;;;;;;;15.25;10.15;;;;;;;10.10;100.00;95865.91;5030234;28;24444;-70
2022/10/20 06:04:07;;;;;;;10.80;9.70;;;;;;;10.04;100.00;95855.91;5027176;28;24514;-70
2022/10/20 06:06:34;;;;;;;14.25;10.50;;;;;;;10.07;100.00;95876.44;5017328;28;24478;-71
2022/10/20 06:09:00;;;;;;;12.50;9.55;;;;;;;10.08;100.00;95876.34;5027904;28;24424;-71
2022/10/20 06:11:27;;;;;;;16.98;9.15;;;;;;;10.09;100.00;95882.38;5030569;28;24436;-72
2022/10/20 06:13:56;;;;;;;11.85;8.68;;;;;;;10.15;100.00;95876.81;5020255;28;24795;-71
2022/10/20 06:16:26;;;;;;;10.20;8.20;;;;;;;10.09;100.00;95879.78;5028358;28;24464;-71
2022/10/20 06:18:53;;;;;;;11.48;8.52;;;;;;;10.03;100.00;95888.72;5015941;28;24425;-71
2022/10/20 06:21:21;;;;;;;10.15;8.23;;;;;;;10.05;100.00;95892.06;5029973;28;24439;-71
2022/10/20 06:23:48;;;;;;;11.10;8.75;;;;;;;10.09;100.00;95885.78;5027414;28;24447;-71
2022/10/20 06:26:17;;;;;;;11.25;8.48;;;;;;;10.15;100.00;95889.75;5029774;28;24439;-71
2022/10/20 06:28:45;;;;;;;10.45;8.55;;;;;;;10.19;100.00;95891.22;5026480;28;24914;-71
2022/10/20 06:31:13;;;;;;;20.40;10.63;;;;;;;10.35;100.00;95889.44;5026580;28;24436;-71
2022/10/20 06:33:41;;;;;;;13.32;11.18;;;;;;;10.49;100.00;95887.75;5025143;28;24436;-70
2022/10/20 06:36:09;;;;;;;18.90;12.20;;;;;;;10.68;100.00;95879.72;5027983;28;24470;-69
2022/10/20 06:38:35;;;;;;;18.48;12.88;;;;;;;10.94;100.00;95878.09;5026483;28;24531;-70
2022/10/20 06:41:03;;;;;;;17.45;13.38;;;;;;;10.96;100.00;95878.84;5029146;28;24443;-72
2022/10/20 06:43:30;;;;;;;14.82;13.15;;;;;;;11.01;100.00;95884.56;5026500;28;24437;-72
2022/10/20 06:45:57;;;;;;;16.83;13.77;;;;;;;11.12;100.00;95879.53;5025226;28;25005;-73
2022/10/20 06:48:23;;;;;;;24.67;14.50;;;;;;;11.06;100.00;95888.53;5027753;28;24547;-74
2022/10/20 06:50:56;;;;;;;14.85;13.07;;;;;;;11.09;100.00;95895.31;5029109;28;24440;-74
2022/10/20 06:53:22;;;;;;;16.02;13.73;;;;;;;11.08;100.00;95891.84;5023259;28;24439;-73
2022/10/20 06:55:55;;;;;;;21.02;14.02;;;;;;;11.07;100.00;95897.13;5023292;28;24460;-72
2022/10/20 06:58:22;;;;;;;14.95;12.25;;;;;;;11.07;100.00;95890.19;5027025;28;24444;-72
2022/10/20 07:00:57;;;;;;;13.82;11.88;;;;;;;11.07;100.00;95884.19;5024011;28;24442;-72
2022/10/20 07:03:23;;;;;;;16.27;12.57;;;;;;;11.08;100.00;95886.66;5026555;28;24459;-72
2022/10/20 07:05:51;;;;;;;14.70;12.95;;;;;;;11.08;100.00;95888.44;5027708;28;24439;-72
2022/10/20 07:08:18;;;;;;;13.82;12.15;;;;;;;11.10;100.00;95884.00;5027834;28;25012;-73
2022/10/20 07:10:44;;;;;;;16.25;12.20;;;;;;;11.11;100.00;95890.84;5028725;28;24442;-73
2022/10/20 07:13:11;;;;;;;16.90;12.25;;;;;;;11.08;100.00;95894.44;5020228;28;24447;-73
2022/10/20 07:15:37;;;;;;;12.75;11.45;;;;;;;11.12;100.00;95882.97;5028268;28;24488;-72
2022/10/20 07:18:04;;;;;;;14.68;11.60;;;;;;;11.15;100.00;95885.34;5015360;28;24440;-72
2022/10/20 07:20:30;;;;;;;13.50;11.02;;;;;;;11.21;100.00;95894.53;5026946;28;24435;-74
2022/10/20 07:22:58;;;;;;;14.95;12.05;;;;;;;11.17;100.00;95892.22;5023741;28;24432;-72
2022/10/20 07:25:25;;;;;;;17.25;12.00;;;;;;;11.31;100.00;95886.97;5017570;28;25015;-71
2022/10/20 07:27:51;;;;;;;20.65;12.85;;;;;;;11.36;100.00;95890.94;5023663;28;24443;-74
2022/10/20 07:30:18;;;;;;;15.35;12.48;;;;;;;11.41;100.00;95888.06;5023933;28;24471;-73
2022/10/20 07:32:44;;;;;;;16.60;13.68;;;;;;;11.52;100.00;95879.59;5031340;28;24432;-73
2022/10/20 07:35:11;;;;;;;13.53;12.13;;;;;;;11.70;100.00;95886.16;5027559;28;24446;-73
2022/10/20 07:37:37;;;;;;;16.20;12.43;;;;;;;11.88;100.00;95881.56;5022750;28;24471;-73
2022/10/20 07:40:06;;;;;;;16.55;13.32;;;;;;;11.88;100.00;95884.16;5026923;28;24432;-72
2022/10/20 07:42:32;;;;;;;16.33;13.43;;;;;;;11.86;100.00;95889.47;5024671;28;24436;-72
2022/10/20 07:44:59;;;;;;;20.02;12.80;;;;;;;11.87;100.00;95879.91;5021209;28;25011;-73
2022/10/20 07:47:26;;;;;;;19.13;13.80;;;;;;;11.82;100.00;95877.56;5020817;28;24437;-72
2022/10/20 07:49:52;;;;;;;17.15;14.52;;;;;;;11.92;100.00;95879.59;5027316;28;24432;-72
2022/10/20 07:52:19;;;;;;;15.80;14.20;;;;;;;11.90;100.00;95879.69;5025643;28;24806;-72
2022/10/20 07:54:45;;;;;;;22.05;15.00;;;;;;;11.90;100.00;95874.50;5018554;28;24438;-72
2022/10/20 07:57:13;;;;;;;17.75;14.13;;;;;;;12.00;100.00;95880.75;5022559;28;24504;-72
2022/10/20 07:59:40;;;;;;;16.17;13.82;;;;;;;12.08;100.00;95878.47;5027602;28;24438;-71
2022/10/20 08:02:07;;;;;;;16.98;14.00;;;;;;;12.35;100.00;95869.78;5026439;28;24435;-72
2022/10/20 08:04:33;;;;;;;18.45;13.80;;;;;;;12.59;100.00;95869.84;5030011;28;24440;-72
2022/10/20 08:07:00;;;;;;;18.87;14.07;;;;;;;12.65;100.00;95872.03;5028412;28;24439;-72
2022/10/20 08:09:26;;;;;;;19.50;14.20;;;;;;;12.65;100.00;95877.22;5031567;28;24438;-73
2022/10/20 08:11:53;;;;;;;16.27;13.65;;;;;;;12.71;100.00;95874.19;5029924;28;24436;-73
2022/10/20 08:14:21;;;;;;;16.67;13.20;;;;;;;12.70;100.00;95871.69;5031365;28;24439;-73
2022/10/20 08:16:47;;;;;;;17.23;13.90;;;;;;;12.68;100.00;95870.97;5031933;28;24464;-73
2022/10/20 08:19:14;;;;;;;13.95;12.38;;;;;;;12.77;100.00;95875.53;5029990;28;24431;-72
2022/10/20 08:21:40;;;;;;;18.48;14.05;;;;;;;12.83;100.00;95862.13;5021632;28;24984;-72
2022/10/20 08:24:07;;;;;;;19.17;13.85;;;;;;;12.98;100.00;95873.22;5028877;28;24475;-73
2022/10/20 08:26:33;;;;;;;19.58;13.48;;;;;;;12.99;100.00;95882.66;5028246;28;24432;-73
2022/10/20 08:29:01;;;;;;;16.88;15.00;;;;;;;12.99;100.00;95883.50;5031312;28;24447;-72
2022/10/20 08:31:29;;;;;;;19.13;14.20;;;;;;;13.00;100.00;95884.31;5031758;28;24439;-75
2022/10/20 08:33:56;;;;;;;17.50;13.80;;;;;;;13.05;100.00;95872.66;5032767;28;24451;-73
2022/10/20 08:36:22;;;;;;;17.03;13.80;;;;;;;13.11;100.00;95879.19;5027044;28;24511;-75
2022/10/20 08:38:49;;;;;;;18.00;14.82;;;;;;;13.14;100.00;95883.34;5017672;28;24443;-73
2022/10/20 08:41:18;;;;;;;20.95;14.45;;;;;;;13.22;100.00;95874.03;5026716;28;24989;-73
2022/10/20 08:43:47;;;;;;;20.00;13.50;;;;;;;13.35;100.00;95874.03;5032776;28;24432;-73
2022/10/20 08:46:15;;;;;;;19.90;13.68;;;;;;;13.57;100.00;95873.28;5029096;28;24498;-73
2022/10/20 08:48:45;;;;;;;21.08;13.45;;;;;;;13.58;100.00;95876.75;5021247;28;24443;-75
2022/10/20 08:51:17;;;;;;;16.23;13.85;;;;;;;13.58;100.00;95877.56;5032639;28;24834;-74
2022/10/20 08:53:44;;;;;;;18.40;13.63;;;;;;;13.52;100.00;95891.03;5031810;28;24446;-72
2022/10/20 08:56:12;;;;;;;19.53;13.63;;;;;;;13.47;100.00;95899.16;5028174;28;25111;-73
2022/10/20 08:58:42;;;;;;;19.85;14.93;;;;;;;13.48;100.00;95887.81;5026233;28;24489;-72
2022/10/20 09:01:17;;;;;;;25.60;15.15;;;;;;;13.49;100.00;95873.84;5030505;28;24790;-71
2022/10/20 09:03:49;;;;;;;20.80;15.50;;;;;;;13.62;100.00;95886.00;5023531;28;24432;-72
2022/10/20 09:06:16;;;;;;;22.30;13.95;;;;;;;13.76;100.00;95896.22;5025724;28;24440;-72
2022/10/20 09:08:43;;;;;;;19.42;14.52;;;;;;;13.83;100.00;95886.16;5025939;28;24450;-72
2022/10/20 09:11:16;;;;;;;17.80;14.73;;;;;;;13.70;100.00;95881.88;5019684;28;24442;-72
2022/10/20 09:13:42;;;;;;;17.83;14.52;;;;;;;13.73;100.00;95886.03;5031570;28;24432;-72
2022/10/20 09:16:15;;;;;;;20.42;13.93;;;;;;;13.70;100.00;95889.69;5028424;28;24459;-72
2022/10/20 09:18:41;;;;;;;17.35;13.90;;;;;;;13.66;100.00;95901.25;5025692;28;24447;-72
2022/10/20 09:21:16;;;;;;;22.08;14.32;;;;;;;13.63;100.00;95909.28;5018533;28;24440;-72
2022/10/20 09:23:45;;;;;;;18.83;15.02;;;;;;;13.62;100.00;95912.00;5019954;28;24440;-72
2022/10/20 09:26:15;;;;;;;18.48;15.10;;;;;;;13.55;100.00;95927.22;5024930;28;24989;-72
2022/10/20 09:28:41;;;;;;;21.33;14.83;;;;;;;13.51;100.00;95931.81;5024972;28;24524;-72
2022/10/20 09:31:21;;;;;;;22.33;14.45;;;;;;;13.51;100.00;95931.81;5029301;28;24443;-72
2022/10/20 09:33:48;;;;;;;18.30;14.10;;;;;;;13.50;100.00;95934.53;5027238;28;24446;-72
2022/10/20 09:36:19;;;;;;;20.45;14.43;;;;;;;13.53;100.00;95931.69;5029008;28;24462;-73
2022/10/20 09:38:48;;;;;;;19.20;13.38;;;;;;;13.65;100.00;95930.00;5018371;28;24428;-72
2022/10/20 09:41:18;;;;;;;20.38;13.70;;;;;;;13.66;100.00;95919.47;5027712;28;24999;-72
2022/10/20 09:43:51;;;;;;;14.70;12.60;;;;;;;13.79;100.00;95914.19;5031548;28;24439;-71
2022/10/20 09:46:22;;;;;;;22.30;13.67;;;;;;;14.04;100.00;95911.44;5024015;28;24459;-71
2022/10/20 09:48:50;;;;;;;23.30;14.57;;;;;;;14.02;100.00;95917.72;5031241;28;24977;-72
2022/10/20 09:51:21;;;;;;;18.02;14.00;;;;;;;14.09;100.00;95923.28;5025275;28;24438;-73
2022/10/20 09:53:55;;;;;;;19.02;13.10;;;;;;;14.08;100.00;95917.25;5024102;28;24432;-74
2022/10/20 09:56:30;;;;;;;15.15;13.13;;;;;;;14.08;100.00;95906.84;5024491;28;24464;-72
2022/10/20 09:58:59;;;;;;;19.58;13.48;;;;;;;14.06;100.00;95906.13;5030920;28;25007;-72
2022/10/20 10:01:25;;;;;;;19.95;13.90;;;;;;;14.37;100.00;95909.03;5025408;28;24432;-72
2022/10/20 10:03:55;;;;;;;18.45;13.95;;;;;;;14.28;100.00;95918.38;5024138;28;24443;-73
2022/10/20 10:06:29;;;;;;;17.33;13.32;;;;;;;14.23;100.00;95915.28;5024640;28;24445;-73
2022/10/20 10:08:57;;;;;;;18.75;13.48;;;;;;;14.36;100.00;95918.63;5030971;28;24439;-72
2022/10/20 10:11:28;;;;;;;18.73;13.50;;;;;;;14.32;100.00;95914.59;5028624;28;24429;-74
2022/10/20 10:13:55;;;;;;;20.48;12.93;;;;;;;14.35;100.00;95913.53;5031006;28;24945;-73
2022/10/20 10:16:24;;;;;;;12.65;11.15;;;;;;;14.38;100.00;95908.09;5029572;28;24974;-73
2022/10/20 10:18:57;;;;;;;16.70;11.80;;;;;;;14.55;100.00;95912.88;5028893;28;25020;-72
2022/10/20 10:21:25;;;;;;;19.38;12.93;;;;;;;14.68;100.00;95907.56;5024529;28;24482;-72
2022/10/20 10:23:54;;;;;;;16.67;12.60;;;;;;;14.54;100.00;95919.06;5019432;28;24440;-72
2022/10/20 10:26:43;;;;;;;16.02;11.02;;;;;;;14.58;100.00;95914.44;5028744;28;24436;-74
2022/10/20 10:29:23;;;;;;;15.03;11.70;;;;;;;14.62;100.00;95906.25;5028390;28;24439;-73
2022/10/20 10:31:55;;;;;;;15.30;11.50;;;;;;;14.94;100.00;95901.19;5029280;28;24438;-73
2022/10/20 10:34:39;;;;;;;13.40;11.57;;;;;;;14.83;100.00;95910.75;5028358;28;24439;-73
2022/10/20 10:37:12;;;;;;;15.32;11.90;;;;;;;15.03;100.00;95891.78;5026630;28;25039;-73
2022/10/20 10:39:38;;;;;;;17.42;11.43;;;;;;;14.99;100.00;95888.59;5026402;28;24850;-73
2022/10/20 10:42:44;;;;;;;16.90;11.35;;;;;;;14.82;100.00;95896.88;5021736;28;24439;-74
2022/10/20 10:45:19;;;;;;;17.55;11.50;;;;;;;14.73;100.00;95915.88;5028673;28;24442;-73
2022/10/20 10:48:02;;;;;;;20.63;10.88;;;;;;;14.75;100.00;95917.38;5028514;28;24447;-73
2022/10/20 10:50:37;;;;;;;17.77;10.55;;;;;;;14.79;100.00;95911.94;5021677;28;24443;-73
2022/10/20 10:53:16;;;;;;;13.70;10.43;;;;;;;14.80;100.00;95900.59;5025978;28;24482;-73
2022/10/20 10:55:51;;;;;;;13.95;10.55;;;;;;;14.83;100.00;95903.78;5020019;28;24446;-73
2022/10/20 10:58:33;;;;;;;14.10;10.10;;;;;;;14.84;100.00;95900.22;5021328;28;24496;-73
2022/10/20 11:01:09;;;;;;;16.67;10.18;;;;;;;14.77;100.00;95894.66;5029050;28;25015;-73
2022/10/20 11:03:54;;;;;;;15.95;10.43;;;;;;;14.81;100.00;95895.25;5020865;28;24447;-74
2022/10/20 11:06:28;;;;;;;13.30;10.18;;;;;;;14.85;100.00;95896.66;5025506;28;24451;-73
2022/10/20 11:09:05;;;;;;;14.13;9.73;;;;;;;14.81;100.00;95897.03;5026695;28;24463;-73
2022/10/20 11:11:43;;;;;;;19.38;10.05;;;;;;;14.76;100.00;95890.41;5029028;28;24443;-73
2022/10/20 11:14:20;;;;;;;14.35;9.55;;;;;;;14.79;100.00;95884.09;5024657;28;24440;-74
2022/10/20 11:16:57;;;;;;;17.98;9.82;;;;;;;14.82;100.00;95867.38;5028496;28;24550;-73
2022/10/20 11:19:56;;;;;;;14.25;9.85;;;;;;;14.71;100.00;95876.88;5022716;28;24459;-73
2022/10/20 11:22:33;;;;;;;16.63;9.77;;;;;;;14.74;100.00;95858.38;5018287;28;24499;-73
2022/10/20 11:25:14;;;;;;;11.27;10.00;;;;;;;14.83;100.00;95856.00;5028112;28;24439;-73
2022/10/20 11:27:40;;;;;;;14.87;10.07;;;;;;;14.84;100.00;95853.28;5027007;28;24850;-73